Time;durP1;ratioP1;P1;durP2;ratioP2;P2;SDS_P1;SDS_P2;PMS_P1;PMS_P2;Temp;Humidity;BMP_temperature;BMP_pressure;BME280_temperature;BME280_humidity;BME280_pressure;Samples;Min_cycle;Max_cycle;Signal;HPM_P1;HPM_P2
2022/09/23 00:00:35;;;;;;;3.42;1.52;;;;;;;5.56;100.00;101350.47;5027832;28;20033;-77
2022/09/23 00:03:00;;;;;;;5.70;1.35;;;;;;;5.40;100.00;101335.78;4988714;28;20479;-78
2022/09/23 00:05:27;;;;;;;3.28;1.80;;;;;;;5.39;100.00;101342.06;4985971;28;20028;-76
2022/09/23 00:07:55;;;;;;;3.83;1.60;;;;;;;5.33;100.00;101336.44;5022597;28;20467;-77
2022/09/23 00:10:23;;;;;;;3.22;1.20;;;;;;;5.35;100.00;101348.66;5006833;28;20037;-77
2022/09/23 00:12:49;;;;;;;2.67;1.50;;;;;;;5.32;100.00;101351.59;5020653;28;20029;-77
2022/09/23 00:15:15;;;;;;;5.75;1.75;;;;;;;5.34;100.00;101354.94;4990947;28;20114;-78
2022/09/23 00:17:41;;;;;;;6.20;1.52;;;;;;;5.28;100.00;101350.97;5022070;28;20113;-77
2022/09/23 00:20:08;;;;;;;3.20;1.25;;;;;;;5.18;100.00;101355.38;5020629;28;20116;-78
2022/09/23 00:22:35;;;;;;;2.28;1.15;;;;;;;5.16;100.00;101345.78;5007848;28;20084;-77
2022/09/23 00:25:04;;;;;;;3.50;1.10;;;;;;;5.10;100.00;101349.81;5024695;28;20418;-79
2022/09/23 00:27:32;;;;;;;6.03;1.77;;;;;;;5.08;100.00;101343.78;5027099;28;20037;-77
2022/09/23 00:29:58;;;;;;;2.60;1.30;;;;;;;5.03;100.00;101345.97;5019643;28;20045;-77
2022/09/23 00:32:24;;;;;;;3.17;1.17;;;;;;;5.05;100.00;101349.34;5029386;28;20115;-77
2022/09/23 00:34:51;;;;;;;3.13;1.48;;;;;;;4.99;100.00;101339.19;5022698;28;20116;-77
2022/09/23 00:37:17;;;;;;;2.28;1.10;;;;;;;5.15;100.00;101350.28;5022568;28;20300;-78
2022/09/23 00:39:44;;;;;;;1.95;1.17;;;;;;;5.19;100.00;101345.56;4993713;28;20060;-76
2022/09/23 00:42:19;;;;;;;2.80;1.50;;;;;;;5.31;100.00;101349.88;4994197;28;20025;-77
2022/09/23 00:44:51;;;;;;;1.52;1.00;;;;;;;5.38;100.00;101353.72;5004792;28;20033;-76
2022/09/23 00:47:35;;;;;;;2.55;1.20;;;;;;;5.32;100.00;101342.72;5020991;28;20022;-77
2022/09/23 00:50:26;;;;;;;1.55;0.90;;;;;;;5.13;100.00;101340.72;5006533;28;20033;-77
2022/09/23 00:52:55;;;;;;;1.77;1.00;;;;;;;5.09;100.00;101342.81;5008809;28;20160;-77
2022/09/23 00:55:29;;;;;;;4.80;1.33;;;;;;;5.12;100.00;101345.22;4989612;28;20098;-77
2022/09/23 00:57:57;;;;;;;7.93;1.60;;;;;;;4.96;100.00;101326.97;5009412;28;20478;-76
2022/09/23 01:00:23;;;;;;;3.47;1.67;;;;;;;4.96;100.00;101342.13;5029923;28;20116;-76
2022/09/23 01:02:49;;;;;;;2.60;1.50;;;;;;;4.87;100.00;101343.72;5004240;28;20589;-77
2022/09/23 01:05:16;;;;;;;3.45;1.23;;;;;;;4.79;100.00;101331.03;5029880;28;20025;-77
2022/09/23 01:07:41;;;;;;;4.80;1.70;;;;;;;4.84;100.00;101339.50;5009171;28;20033;-77
2022/09/23 01:10:08;;;;;;;5.70;1.90;;;;;;;4.98;100.00;101340.19;5029539;28;20029;-76
2022/09/23 01:12:39;;;;;;;4.80;1.90;;;;;;;5.05;100.00;101344.00;5027530;28;20402;-76
2022/09/23 01:15:09;;;;;;;5.95;1.73;;;;;;;5.00;100.00;101340.88;5022455;28;20148;-77
2022/09/23 01:18:06;;;;;;;5.28;1.90;;;;;;;5.02;100.00;101344.28;5009874;28;20037;-77
2022/09/23 01:21:10;;;;;;;2.28;1.38;;;;;;;4.97;100.00;101347.31;4988852;28;20294;-77
2022/09/23 01:23:41;;;;;;;5.00;1.60;;;;;;;4.86;100.00;101310.03;5038117;28;20033;-77
2022/09/23 01:26:38;;;;;;;8.73;1.85;;;;;;;5.12;100.00;101345.22;5035948;28;20061;-77
2022/09/23 01:29:42;;;;;;;2.88;1.08;;;;;;;5.07;100.00;101347.41;5012784;28;20060;-77
2022/09/23 01:32:38;;;;;;;3.45;1.10;;;;;;;4.81;100.00;101338.88;5025236;28;20030;-77
2022/09/23 01:35:37;;;;;;;4.28;1.60;;;;;;;4.82;100.00;101346.75;5003883;28;20045;-78
2022/09/23 01:38:21;;;;;;;2.38;0.98;;;;;;;4.75;100.00;101350.88;4992037;28;20095;-76
2022/09/23 01:40:58;;;;;;;6.95;1.30;;;;;;;4.68;100.00;101356.81;5023592;28;20087;-76
2022/09/23 01:43:41;;;;;;;4.45;1.60;;;;;;;4.53;100.00;101337.59;5024087;28;20034;-78
2022/09/23 01:46:26;;;;;;;;;;;;;;;4.51;100.00;101352.84;5024885;28;20341;-76
2022/09/23 01:49:21;;;;;;;1.65;1.00;;;;;;;4.65;100.00;101357.91;5006566;28;20036;-77
2022/09/23 01:51:51;;;;;;;2.15;1.00;;;;;;;4.72;100.00;101345.78;5010045;28;20041;-77
2022/09/23 01:54:59;;;;;;;2.33;1.27;;;;;;;4.67;100.00;101344.47;4993480;28;20124;-76
2022/09/23 01:57:33;;;;;;;2.58;0.75;;;;;;;4.48;100.00;101335.28;5024523;28;20055;-76
2022/09/23 02:00:05;;;;;;;2.10;1.13;;;;;;;4.49;100.00;101342.28;5028172;28;20349;-77
2022/09/23 02:02:35;;;;;;;4.97;1.58;;;;;;;4.55;100.00;101344.50;5011977;28;20031;-77
2022/09/23 02:05:14;;;;;;;4.53;1.45;;;;;;;4.63;100.00;101349.19;5012002;28;20059;-77
2022/09/23 02:07:52;;;;;;;3.50;1.48;;;;;;;4.69;100.00;101342.53;5022195;28;20072;-77
2022/09/23 02:10:23;;;;;;;3.30;1.30;;;;;;;4.74;100.00;101335.03;5025251;28;20033;-79
2022/09/23 02:12:52;;;;;;;3.10;1.58;;;;;;;4.89;100.00;101332.91;5011843;28;20467;-77
2022/09/23 02:15:21;;;;;;;6.10;1.30;;;;;;;4.95;100.00;101321.75;5009501;28;20179;-76
2022/09/23 02:17:51;;;;;;;3.55;1.20;;;;;;;5.03;100.00;101338.00;5030632;28;20033;-76
2022/09/23 02:20:25;;;;;;;4.80;1.27;;;;;;;4.87;100.00;101330.41;5021251;28;20036;-77
2022/09/23 02:23:02;;;;;;;3.78;1.00;;;;;;;4.74;100.00;101329.69;5006387;28;20030;-78
2022/09/23 02:25:48;;;;;;;2.50;1.08;;;;;;;4.72;100.00;101327.16;5014879;28;20452;-76
2022/09/23 02:28:18;;;;;;;2.88;1.10;;;;;;;4.79;100.00;101333.69;5039463;28;20034;-77
2022/09/23 02:30:55;;;;;;;1.05;0.70;;;;;;;4.81;100.00;101334.38;5038318;28;20026;-77
2022/09/23 02:33:23;;;;;;;1.13;0.88;;;;;;;4.83;100.00;101334.25;5030682;28;20068;-77
2022/09/23 02:36:24;;;;;;;2.08;1.00;;;;;;;4.81;100.00;101323.72;5030295;28;20061;-77
2022/09/23 02:38:58;;;;;;;0.90;0.60;;;;;;;4.79;100.00;101322.16;5025266;28;20052;-78
2022/09/23 02:41:39;;;;;;;1.80;0.90;;;;;;;4.84;100.00;101319.97;5012108;28;20465;-77
2022/09/23 02:44:09;;;;;;;2.60;0.82;;;;;;;4.80;100.00;101313.22;5027519;28;20064;-77
2022/09/23 02:46:35;;;;;;;1.60;0.77;;;;;;;4.94;100.00;101334.22;5027679;28;20029;-77
2022/09/23 02:49:22;;;;;;;3.83;0.88;;;;;;;4.88;100.00;101328.56;5021049;28;20055;-77
2022/09/23 02:51:47;;;;;;;2.38;0.90;;;;;;;4.81;100.00;101318.38;5028198;28;20029;-77
2022/09/23 02:54:19;;;;;;;6.65;1.30;;;;;;;4.78;100.00;101323.97;5025109;28;20113;-77
2022/09/23 02:56:44;;;;;;;2.78;0.98;;;;;;;4.71;100.00;101314.81;5028241;28;20025;-77
2022/09/23 02:59:10;;;;;;;3.10;1.10;;;;;;;4.72;100.00;101312.97;5028568;28;20486;-77
2022/09/23 03:01:49;;;;;;;3.05;1.05;;;;;;;4.80;100.00;101308.72;5009803;28;20036;-78
2022/09/23 03:04:38;;;;;;;8.43;1.02;;;;;;;5.17;100.00;101335.03;5023131;28;20017;-78
2022/09/23 03:07:30;;;;;;;2.90;1.52;;;;;;;5.36;100.00;101320.16;5010510;28;20094;-76
2022/09/23 03:10:02;;;;;;;7.53;1.92;;;;;;;5.49;100.00;101326.16;5007968;28;20383;-77
2022/09/23 03:12:37;;;;;;;5.88;1.95;;;;;;;5.57;100.00;101337.03;5021752;28;20037;-78
2022/09/23 03:15:06;;;;;;;5.97;1.88;;;;;;;5.62;100.00;101325.97;5027420;28;20040;-76
2022/09/23 03:17:36;;;;;;;8.00;2.00;;;;;;;5.57;100.00;101313.03;5009912;28;20029;-77
2022/09/23 03:20:08;;;;;;;3.95;2.17;;;;;;;5.55;100.00;101322.13;5025860;28;20496;-77
2022/09/23 03:22:44;;;;;;;5.15;1.55;;;;;;;5.40;100.00;101326.91;5021661;28;20068;-77
2022/09/23 03:25:22;;;;;;;2.58;1.17;;;;;;;5.34;100.00;101327.44;5028767;28;20040;-77
2022/09/23 03:27:49;;;;;;;2.45;1.20;;;;;;;5.32;100.00;101332.03;5033916;28;20547;-77
2022/09/23 03:30:14;;;;;;;3.90;1.55;;;;;;;5.25;100.00;101316.56;5027313;28;20037;-76
2022/09/23 03:32:44;;;;;;;5.85;2.10;;;;;;;5.25;100.00;101313.91;5030230;28;20045;-76
2022/09/23 03:35:10;;;;;;;5.80;2.20;;;;;;;5.28;100.00;101328.78;5014284;28;20474;-77
2022/09/23 03:37:52;;;;;;;5.82;1.88;;;;;;;5.16;100.00;101322.69;5013057;28;20079;-77
2022/09/23 03:40:26;;;;;;;4.72;1.63;;;;;;;5.19;100.00;101332.25;5026220;28;20114;-77
2022/09/23 03:42:54;;;;;;;6.45;2.03;;;;;;;5.04;100.00;101313.00;5032404;28;20076;-76
2022/09/23 03:45:27;;;;;;;4.38;1.73;;;;;;;5.19;100.00;101332.25;4999554;28;20368;-77
2022/09/23 03:47:52;;;;;;;4.72;1.60;;;;;;;5.20;100.00;101337.44;4995010;28;20037;-77
2022/09/23 03:50:19;;;;;;;8.43;1.77;;;;;;;5.26;100.00;101336.91;4989497;28;20386;-77
2022/09/23 03:52:46;;;;;;;3.03;1.33;;;;;;;5.40;100.00;101345.59;5015683;28;20055;-76
2022/09/23 03:55:12;;;;;;;4.70;1.40;;;;;;;5.44;100.00;101337.22;5005978;28;20032;-76
2022/09/23 03:57:38;;;;;;;5.32;1.60;;;;;;;5.44;100.00;101339.88;5014775;28;20029;-76
2022/09/23 04:00:06;;;;;;;8.98;1.73;;;;;;;5.41;100.00;101345.47;5030332;28;20313;-78
2022/09/23 04:02:33;;;;;;;10.55;2.38;;;;;;;5.40;100.00;101340.25;5024583;28;20060;-77
2022/09/23 04:04:58;;;;;;;9.95;1.88;;;;;;;5.40;100.00;101332.25;5005202;28;20108;-78
2022/09/23 04:07:24;;;;;;;6.70;1.63;;;;;;;5.50;100.00;101341.19;5026694;28;20120;-76
2022/09/23 04:09:50;;;;;;;4.05;1.30;;;;;;;5.43;100.00;101340.88;5010317;28;20033;-77
2022/09/23 04:12:16;;;;;;;2.80;1.13;;;;;;;5.29;100.00;101343.81;5007972;28;20232;-77
2022/09/23 04:14:42;;;;;;;5.85;1.45;;;;;;;5.11;100.00;101340.88;5023196;28;20272;-77
2022/09/23 04:17:08;;;;;;;1.52;1.02;;;;;;;5.01;100.00;101340.75;5000662;28;20038;-77
2022/09/23 04:19:34;;;;;;;3.95;1.10;;;;;;;5.04;100.00;101343.19;5024233;28;20044;-76
2022/09/23 04:21:59;;;;;;;1.55;0.80;;;;;;;5.08;100.00;101335.78;4990122;28;20052;-77
2022/09/23 04:24:25;;;;;;;1.50;0.85;;;;;;;5.16;100.00;101354.66;5010108;28;20367;-77
2022/09/23 04:26:52;;;;;;;3.00;1.15;;;;;;;5.27;100.00;101343.97;5024975;28;20053;-77
2022/09/23 04:29:18;;;;;;;1.20;0.68;;;;;;;5.40;100.00;101343.78;5016897;28;20029;-77
2022/09/23 04:31:44;;;;;;;2.55;1.10;;;;;;;5.45;100.00;101333.59;5034640;28;20025;-76
2022/09/23 04:34:10;;;;;;;2.63;1.00;;;;;;;5.58;100.00;101341.38;4996110;28;20087;-77
2022/09/23 04:36:35;;;;;;;0.63;0.60;;;;;;;5.63;100.00;101339.16;5011227;28;20060;-78
2022/09/23 04:39:01;;;;;;;4.45;0.90;;;;;;;5.71;100.00;101330.53;4985639;28;20103;-77
2022/09/23 04:41:27;;;;;;;4.28;1.05;;;;;;;5.82;100.00;101332.28;5011317;28;20109;-77
2022/09/23 04:43:56;;;;;;;2.33;1.08;;;;;;;5.90;100.00;101337.78;5028708;28;20033;-77
2022/09/23 04:46:21;;;;;;;4.50;1.13;;;;;;;6.02;100.00;101334.13;5023271;28;20025;-77
2022/09/23 04:48:47;;;;;;;5.93;1.10;;;;;;;5.98;100.00;101322.03;4990538;28;20422;-78
2022/09/23 04:51:15;;;;;;;5.70;1.10;;;;;;;6.09;100.00;101337.97;5031586;28;20028;-78
2022/09/23 04:53:44;;;;;;;2.72;1.35;;;;;;;6.12;100.00;101324.34;5007912;28;20436;-76
2022/09/23 04:56:18;;;;;;;4.30;1.20;;;;;;;6.20;100.00;101337.03;5025901;28;20032;-77
2022/09/23 04:58:44;;;;;;;1.85;0.98;;;;;;;6.23;100.00;101338.59;5009476;28;20079;-78
2022/09/23 05:01:19;;;;;;;2.25;1.00;;;;;;;6.24;100.00;101335.75;5007616;28;20073;-78
2022/09/23 05:03:45;;;;;;;2.13;1.17;;;;;;;6.31;100.00;101344.09;5034769;28;20187;-78
2022/09/23 05:06:12;;;;;;;1.52;1.13;;;;;;;6.39;100.00;101347.78;5024481;28;20116;-78
2022/09/23 05:08:39;;;;;;;2.65;1.17;;;;;;;6.42;100.00;101344.00;4992468;28;20033;-78
2022/09/23 05:11:05;;;;;;;1.90;0.90;;;;;;;6.53;100.00;101354.59;5027488;28;20037;-77
2022/09/23 05:13:32;;;;;;;1.45;0.80;;;;;;;6.55;100.00;101346.44;5007596;28;20095;-77
2022/09/23 05:16:06;;;;;;;2.53;0.90;;;;;;;6.63;100.00;101349.28;5019718;28;20037;-77
2022/09/23 05:18:33;;;;;;;1.95;1.02;;;;;;;6.68;100.00;101354.22;5000485;28;20095;-77
2022/09/23 05:21:00;;;;;;;2.20;1.02;;;;;;;6.69;100.00;101353.25;5011324;28;20440;-78
2022/09/23 05:23:26;;;;;;;1.73;0.95;;;;;;;6.67;100.00;101355.19;5005264;28;20039;-76
2022/09/23 05:25:57;;;;;;;3.03;1.00;;;;;;;6.60;100.00;101345.06;5023800;28;20475;-77
2022/09/23 05:28:25;;;;;;;4.97;1.63;;;;;;;6.65;100.00;101350.00;5019605;28;20025;-78
2022/09/23 05:30:50;;;;;;;1.52;1.00;;;;;;;6.62;100.00;101344.09;5022168;28;20080;-77
2022/09/23 05:33:16;;;;;;;2.13;1.23;;;;;;;6.63;100.00;101348.44;5024779;28;20025;-76
2022/09/23 05:35:46;;;;;;;1.83;1.00;;;;;;;6.58;100.00;101355.03;5028712;28;20426;-76
2022/09/23 05:38:15;;;;;;;4.03;1.30;;;;;;;6.49;100.00;101350.50;5020414;28;20541;-78
2022/09/23 05:40:40;;;;;;;3.60;1.27;;;;;;;6.44;100.00;101355.41;5026405;28;20044;-77
2022/09/23 05:43:06;;;;;;;3.83;1.48;;;;;;;6.30;100.00;101339.75;4992983;28;20029;-77
2022/09/23 05:45:31;;;;;;;3.00;1.55;;;;;;;6.41;100.00;101358.34;5026789;28;20025;-77
2022/09/23 05:47:57;;;;;;;3.85;1.88;;;;;;;6.48;100.00;101362.16;4991192;28;20038;-77
2022/09/23 05:50:23;;;;;;;5.22;2.10;;;;;;;6.43;100.00;101364.41;5013926;28;20434;-77
2022/09/23 05:52:49;;;;;;;5.60;2.15;;;;;;;6.28;100.00;101361.25;5009601;28;20379;-76
2022/09/23 05:55:14;;;;;;;4.90;1.45;;;;;;;6.28;100.00;101382.59;5029449;28;20356;-77
2022/09/23 05:57:40;;;;;;;7.10;1.70;;;;;;;6.20;100.00;101389.59;4991777;28;20034;-77
2022/09/23 06:00:06;;;;;;;3.08;1.67;;;;;;;6.08;100.00;101378.13;5027169;28;20064;-77
2022/09/23 06:02:32;;;;;;;2.78;1.73;;;;;;;5.97;100.00;101375.53;4995357;28;20033;-77
2022/09/23 06:04:58;;;;;;;4.60;1.55;;;;;;;5.90;100.00;101377.84;4996055;28;20041;-77
2022/09/23 06:07:23;;;;;;;3.85;1.67;;;;;;;5.94;100.00;101390.00;4993389;28;20075;-77
2022/09/23 06:09:49;;;;;;;4.10;1.85;;;;;;;5.98;100.00;101385.22;5029922;28;20029;-77
2022/09/23 06:12:15;;;;;;;3.63;1.65;;;;;;;5.94;100.00;101390.81;4995801;28;20278;-79
2022/09/23 06:14:41;;;;;;;5.72;2.03;;;;;;;5.93;100.00;101394.50;5029724;28;20059;-79
2022/09/23 06:17:06;;;;;;;6.32;1.98;;;;;;;5.99;100.00;101386.94;4993799;28;20064;-77
2022/09/23 06:19:32;;;;;;;3.08;1.40;;;;;;;6.11;100.00;101397.41;5006938;28;20037;-77
2022/09/23 06:21:57;;;;;;;5.38;1.60;;;;;;;6.09;100.00;101394.03;5028779;28;20370;-78
2022/09/23 06:24:23;;;;;;;8.95;2.13;;;;;;;6.18;100.00;101402.22;4997736;28;20718;-78
2022/09/23 06:26:49;;;;;;;13.75;1.80;;;;;;;6.21;100.00;101405.47;5014002;28;20032;-77
2022/09/23 06:29:15;;;;;;;4.72;1.50;;;;;;;6.27;100.00;101407.63;4993374;28;20057;-77
2022/09/23 06:31:42;;;;;;;6.53;1.88;;;;;;;6.27;100.00;101398.75;4997696;28;20041;-77
2022/09/23 06:34:12;;;;;;;8.65;2.08;;;;;;;6.33;100.00;101412.44;5013254;28;20039;-77
2022/09/23 06:36:38;;;;;;;9.15;2.03;;;;;;;6.30;100.00;101398.50;4991789;28;20033;-77
2022/09/23 06:39:04;;;;;;;36.30;3.65;;;;;;;6.29;100.00;101411.00;5030624;28;20048;-77
2022/09/23 06:41:29;;;;;;;6.25;1.98;;;;;;;6.23;100.00;101408.03;5010323;28;20050;-77
2022/09/23 06:43:55;;;;;;;7.53;1.90;;;;;;;6.27;100.00;101407.63;5000390;28;20087;-77
2022/09/23 06:46:21;;;;;;;6.28;1.60;;;;;;;6.38;100.00;101401.38;5009462;28;20069;-77
2022/09/23 06:48:49;;;;;;;5.45;1.88;;;;;;;6.43;100.00;101403.63;4994072;28;20040;-77
2022/09/23 06:51:18;;;;;;;7.80;2.15;;;;;;;6.39;100.00;101395.03;5027419;28;20039;-76
2022/09/23 06:53:47;;;;;;;12.13;2.20;;;;;;;6.21;100.00;101364.56;5023900;28;20065;-77
2022/09/23 06:56:14;;;;;;;5.03;1.70;;;;;;;6.51;100.00;101409.13;5023439;28;20087;-78
2022/09/23 06:58:40;;;;;;;5.20;1.92;;;;;;;6.48;100.00;101410.25;5038157;28;20815;-77
2022/09/23 07:01:07;;;;;;;5.50;2.05;;;;;;;6.41;100.00;101403.75;5022137;28;20108;-77
2022/09/23 07:03:34;;;;;;;10.77;3.22;;;;;;;6.33;100.00;101403.59;4990549;28;20132;-77
2022/09/23 07:06:00;;;;;;;15.90;6.00;;;;;;;6.29;100.00;101418.16;5024082;28;20026;-76
2022/09/23 07:08:27;;;;;;;16.13;6.78;;;;;;;6.26;100.00;101418.44;5017533;28;20029;-77
2022/09/23 07:10:54;;;;;;;16.13;4.78;;;;;;;6.22;100.00;101404.50;5022281;28;20091;-77
2022/09/23 07:13:20;;;;;;;14.13;4.15;;;;;;;6.22;100.00;101406.31;4994080;28;20076;-76
2022/09/23 07:15:52;;;;;;;12.43;3.78;;;;;;;6.30;100.00;101417.22;5023815;28;20069;-76
2022/09/23 07:18:18;;;;;;;14.05;4.20;;;;;;;6.40;100.00;101418.09;5025745;28;20362;-77
2022/09/23 07:20:45;;;;;;;13.45;3.58;;;;;;;6.33;100.00;101414.28;5019542;28;20065;-77
2022/09/23 07:23:11;;;;;;;7.60;3.65;;;;;;;6.37;100.00;101416.53;5008824;28;20060;-76
2022/09/23 07:25:37;;;;;;;4.80;1.70;;;;;;;6.65;100.00;101416.81;5023256;28;20034;-76
2022/09/23 07:28:04;;;;;;;5.95;3.13;;;;;;;6.74;100.00;101413.31;5006880;28;20387;-76
2022/09/23 07:30:30;;;;;;;5.18;1.90;;;;;;;6.88;100.00;101417.47;5026701;28;20091;-77
2022/09/23 07:32:55;;;;;;;2.13;1.30;;;;;;;6.99;100.00;101422.72;5027186;28;20075;-76
2022/09/23 07:35:21;;;;;;;10.13;1.42;;;;;;;7.13;100.00;101423.31;4992398;28;20045;-76
2022/09/23 07:37:49;;;;;;;4.22;1.38;;;;;;;7.34;100.00;101428.56;5024471;28;20034;-76
2022/09/23 07:40:15;;;;;;;6.18;1.52;;;;;;;7.51;100.00;101427.03;5031040;28;20037;-76
2022/09/23 07:42:40;;;;;;;15.82;9.30;;;;;;;7.61;100.00;101430.56;4995446;28;20468;-76
2022/09/23 07:45:07;;;;;;;51.00;31.15;;;;;;;7.80;100.00;101430.53;5009582;28;20025;-76
2022/09/23 07:47:33;;;;;;;44.58;29.73;;;;;;;8.46;100.00;101434.28;5024395;28;20109;-76
2022/09/23 07:49:59;;;;;;;11.52;5.18;;;;;;;8.66;100.00;101430.56;4988616;28;20096;-76
2022/09/23 07:52:25;;;;;;;7.45;3.28;;;;;;;8.44;100.00;101437.13;5003997;28;20435;-77
2022/09/23 07:54:51;;;;;;;10.23;2.53;;;;;;;8.50;100.00;101443.75;5024107;28;20533;-76
2022/09/23 07:57:17;;;;;;;9.40;2.92;;;;;;;9.01;100.00;101442.41;5012447;28;20090;-78
2022/09/23 07:59:42;;;;;;;7.00;3.08;;;;;;;10.00;100.00;101445.13;4991754;28;20094;-76
2022/09/23 08:02:09;;;;;;;5.85;2.33;;;;;;;10.83;100.00;101451.91;5018484;28;20032;-76
2022/09/23 08:04:35;;;;;;;7.25;2.95;;;;;;;11.16;100.00;101444.81;5024582;28;20149;-77
2022/09/23 08:07:03;;;;;;;2.88;1.00;;;;;;;11.28;100.00;101446.22;4994175;28;20037;-77
2022/09/23 08:09:33;;;;;;;1.73;1.10;;;;;;;11.60;100.00;101450.00;5023615;28;20036;-76
2022/09/23 08:11:59;;;;;;;2.28;1.70;;;;;;;11.98;100.00;101448.53;4993019;28;20118;-76
2022/09/23 08:14:27;;;;;;;2.40;0.80;;;;;;;12.06;100.00;101451.22;5031530;28;20467;-76
2022/09/23 08:16:53;;;;;;;2.72;0.93;;;;;;;11.64;100.00;101441.41;4991658;28;20051;-76
2022/09/23 08:19:19;;;;;;;3.75;1.10;;;;;;;11.95;100.00;101458.81;5024660;28;20104;-76
2022/09/23 08:21:46;;;;;;;9.10;2.38;;;;;;;12.79;100.00;101451.31;4991216;28;20037;-76
2022/09/23 08:24:22;;;;;;;3.88;2.55;;;;;;;12.70;100.00;101447.75;5040840;28;20536;-76
2022/09/23 08:26:48;;;;;;;6.25;3.38;;;;;;;12.81;100.00;101454.66;5020965;28;20095;-76
2022/09/23 08:29:15;;;;;;;7.68;3.60;;;;;;;13.01;100.00;101455.94;5022885;28;20463;-77
2022/09/23 08:31:41;;;;;;;2.60;1.40;;;;;;;13.30;100.00;101449.91;5009889;28;20448;-77
2022/09/23 08:34:07;;;;;;;7.68;1.20;;;;;;;14.14;100.00;101446.50;4987192;28;20034;-76
2022/09/23 08:36:34;;;;;;;4.88;0.98;;;;;;;14.70;97.88;101453.22;5028432;28;20191;-76
2022/09/23 08:38:59;;;;;;;3.03;1.00;;;;;;;15.22;95.67;101451.44;4992520;28;20039;-76
2022/09/23 08:41:53;;;;;;;2.35;1.23;;;;;;;15.13;93.58;101463.38;4988840;28;20030;-77
2022/09/23 08:44:43;;;;;;;9.73;1.50;;;;;;;14.84;97.28;101456.13;5023980;28;20048;-77
2022/09/23 08:47:21;;;;;;;6.55;1.23;;;;;;;14.37;100.00;101451.84;5022274;28;20045;-77
2022/09/23 08:49:55;;;;;;;9.15;3.38;;;;;;;15.10;100.00;101463.75;5024669;28;20065;-76
2022/09/23 08:52:32;;;;;;;5.82;1.27;;;;;;;15.65;94.27;101454.22;4992730;28;20036;-80
2022/09/23 08:54:58;;;;;;;16.30;1.83;;;;;;;14.83;96.32;101458.00;5019337;28;20093;-78
2022/09/23 08:57:48;;;;;;;9.57;1.70;;;;;;;14.98;100.00;101463.41;5027739;28;20125;-78
2022/09/23 09:00:19;;;;;;;21.23;2.53;;;;;;;14.95;100.00;101459.22;5003395;28;20416;-78
2022/09/23 09:02:46;;;;;;;6.25;1.80;;;;;;;15.63;99.07;101460.84;4990041;28;20042;-78
2022/09/23 09:05:11;;;;;;;9.75;1.45;;;;;;;16.24;95.32;101459.38;5025676;28;20080;-77
2022/09/23 09:07:39;;;;;;;7.78;2.13;;;;;;;16.58;95.73;101463.19;4992809;28;20033;-78
2022/09/23 09:10:17;;;;;;;5.53;1.25;;;;;;;16.62;92.13;101466.38;5024545;28;20415;-79
2022/09/23 09:12:50;;;;;;;7.43;1.30;;;;;;;16.41;91.65;101461.81;5023364;28;20044;-78
2022/09/23 09:15:26;;;;;;;9.10;1.80;;;;;;;17.38;92.14;101460.09;4995696;28;20509;-84
2022/09/23 09:17:52;;;;;;;4.90;1.50;;;;;;;18.61;88.56;101474.28;5024514;28;20060;-80
2022/09/23 09:20:41;;;;;;;4.07;1.70;;;;;;;17.81;86.91;101466.09;5026441;28;20521;-81
2022/09/23 09:23:22;;;;;;;3.45;1.75;;;;;;;18.05;86.98;101478.28;5030515;28;20338;-79
2022/09/23 09:25:53;;;;;;;4.05;1.95;;;;;;;19.62;83.20;101471.03;5005130;28;20030;-79
2022/09/23 09:28:47;;;;;;;5.15;1.67;;;;;;;20.46;79.91;101466.25;4995849;28;20052;-83
2022/09/23 09:31:36;;;;;;;3.88;2.00;;;;;;;20.27;78.42;101462.63;5022849;28;20068;-80
2022/09/23 09:34:21;;;;;;;3.92;2.33;;;;;;;21.54;73.49;101470.34;4989869;28;20681;-79
2022/09/23 09:37:19;;;;;;;5.43;2.10;;;;;;;23.58;69.59;101460.63;5027994;28;20029;-79
2022/09/23 09:39:45;;;;;;;6.78;2.10;;;;;;;24.74;63.84;101459.25;5011154;28;20053;-80
2022/09/23 09:42:24;;;;;;;5.30;2.28;;;;;;;25.62;60.42;101467.56;5017459;28;20056;-80
2022/09/23 09:44:54;;;;;;;4.50;2.05;;;;;;;24.57;59.03;101456.56;5012099;28;20476;-80
2022/09/23 09:47:39;;;;;;;4.18;1.88;;;;;;;24.62;57.78;101464.06;5029404;28;20030;-80
2022/09/23 09:50:07;;;;;;;4.60;1.92;;;;;;;24.46;59.29;101463.81;5030921;28;20112;-82
2022/09/23 09:52:32;;;;;;;3.15;2.10;;;;;;;23.35;61.31;101457.97;4998490;28;20498;-80
2022/09/23 09:55:16;;;;;;;3.90;1.60;;;;;;;22.76;64.46;101456.16;5025375;28;20025;-81
2022/09/23 09:57:42;;;;;;;3.65;1.42;;;;;;;22.26;64.58;101461.28;5028975;28;20030;-80
2022/09/23 10:00:20;;;;;;;2.55;1.50;;;;;;;22.11;67.47;101456.22;5025764;28;20031;-83
2022/09/23 10:02:54;;;;;;;3.00;1.80;;;;;;;22.08;67.23;101457.53;5023223;28;20129;-81
2022/09/23 10:05:26;;;;;;;4.18;1.92;;;;;;;23.98;62.29;101459.72;4996756;28;20152;-79
2022/09/23 10:07:53;;;;;;;8.30;6.88;;;;;;;25.13;59.40;101450.97;5031282;28;20186;-80
2022/09/23 10:10:25;;;;;;;11.77;6.85;;;;;;;26.45;56.13;101454.25;5028397;28;20579;-83
2022/09/23 10:12:51;;;;;;;12.20;8.00;;;;;;;27.26;55.28;101449.47;5008468;28;20115;-77
2022/09/23 10:15:30;;;;;;;6.03;4.40;;;;;;;28.22;50.99;101448.78;5028619;28;20040;-78
2022/09/23 10:18:00;;;;;;;7.07;2.97;;;;;;;28.35;49.64;101446.59;4999352;28;20065;-78
2022/09/23 10:20:25;;;;;;;3.05;1.85;;;;;;;29.07;49.52;101458.34;4993789;28;20091;-78
2022/09/23 10:22:51;;;;;;;1999.90;999.90;;;;;;;30.22;44.81;101445.97;5013457;28;20494;-78
2022/09/23 10:25:25;;;;;;;84.70;78.28;;;;;;;31.41;40.82;101449.09;5015454;28;20034;-78
2022/09/23 10:27:51;;;;;;;2.15;1.00;;;;;;;30.55;41.50;101429.56;5028948;28;20116;-78
2022/09/23 10:30:22;;;;;;;1.90;0.80;;;;;;;26.95;42.03;101439.09;5015722;28;20104;-78
2022/09/23 10:32:50;;;;;;;2.63;0.90;;;;;;;24.44;51.45;101435.75;5027712;28;20072;-78
2022/09/23 10:35:16;;;;;;;759.72;186.27;;;;;;;23.35;52.55;101445.06;5022385;28;20072;-78
2022/09/23 10:37:45;;;;;;;1.20;0.70;;;;;;;21.62;57.04;101447.25;4993856;28;20438;-77
2022/09/23 10:46:44;;;;;;;2.10;1.00;;;;;;;17.26;78.58;101443.53;5027413;28;20272;-77
2022/09/23 10:49:29;;;;;;;4.28;0.70;;;;;;;16.65;83.59;101442.34;5011313;28;20041;-77
2022/09/23 10:52:22;;;;;;;1.05;0.70;;;;;;;16.56;82.40;101446.25;5028702;28;20025;-78
2022/09/23 10:55:13;;;;;;;2.25;0.90;;;;;;;18.36;70.93;101452.31;5026583;28;20077;-77
2022/09/23 10:58:03;;;;;;;4.30;0.80;;;;;;;20.27;64.41;101435.34;5023548;28;20091;-77
2022/09/23 11:00:56;;;;;;;2.35;0.90;;;;;;;24.09;47.59;101439.56;5023974;28;20025;-78
2022/09/23 11:03:49;;;;;;;2.03;0.95;;;;;;;26.49;42.30;101452.63;5016422;28;20061;-79
2022/09/23 11:06:33;;;;;;;2.13;0.90;;;;;;;27.87;38.13;101454.34;5029136;28;20450;-78
2022/09/23 11:09:30;;;;;;;1.10;0.95;;;;;;;28.22;33.14;101448.78;5008809;28;20076;-78
2022/09/23 11:12:08;;;;;;;0.98;0.90;;;;;;;27.70;34.18;101443.50;5019202;28;20030;-79
2022/09/23 11:14:45;;;;;;;1.30;0.52;;;;;;;25.06;40.40;101442.94;5031277;28;20435;-79
2022/09/23 11:17:25;;;;;;;0.50;0.47;;;;;;;22.23;45.73;101445.28;5024632;28;20056;-78
2022/09/23 11:19:55;;;;;;;1.30;0.80;;;;;;;24.00;42.42;101452.06;5011642;28;20038;-80
2022/09/23 11:22:36;;;;;;;1.65;1.00;;;;;;;25.97;38.05;101444.22;5007784;28;20080;-78
2022/09/23 11:25:39;;;;;;;1.50;0.80;;;;;;;27.43;34.30;101435.44;5026623;28;20029;-78
2022/09/23 11:28:17;;;;;;;1.50;0.80;;;;;;;27.70;33.94;101441.56;5022409;28;20052;-79
2022/09/23 11:30:52;;;;;;;1.13;0.70;;;;;;;28.21;32.15;101451.81;5024708;28;20041;-79
2022/09/23 11:33:43;;;;;;;1.27;0.80;;;;;;;28.52;31.94;101447.13;5026024;28;20309;-78
2022/09/23 11:36:16;;;;;;;2.50;0.90;;;;;;;29.40;32.24;101450.41;5027218;28;20033;-79
2022/09/23 11:38:45;;;;;;;2.30;1.20;;;;;;;30.31;29.08;101442.59;5013737;28;20701;-79
2022/09/23 11:41:28;;;;;;;0.98;0.50;;;;;;;25.33;35.71;101428.41;5030200;28;20026;-79
2022/09/23 11:44:03;;;;;;;2.00;0.65;;;;;;;22.82;41.64;101446.13;5013503;28;20033;-79
2022/09/23 11:46:33;;;;;;;2.50;1.50;;;;;;;24.94;39.55;101437.53;5020351;28;20025;-79
2022/09/23 11:49:14;;;;;;;2.15;0.80;;;;;;;26.02;37.39;101411.19;4986204;28;20361;-78
2022/09/23 11:51:49;;;;;;;0.63;0.60;;;;;;;26.84;35.43;101431.06;5008058;28;20065;-78